sensor_id;sensor_type;location;lat;lon;timestamp;temperature;humidity
59961;DHT22;55902;-37.980;-63.602;2023-03-16T00:01:08;24.90;55.40
59961;DHT22;55902;-37.980;-63.602;2023-03-16T00:03:38;24.80;57.20
59961;DHT22;55902;-37.980;-63.602;2023-03-16T00:06:05;24.70;56.30
59961;DHT22;55902;-37.980;-63.602;2023-03-16T00:08:34;24.60;58.80
59961;DHT22;55902;-37.980;-63.602;2023-03-16T00:11:04;24.40;57.10
59961;DHT22;55902;-37.980;-63.602;2023-03-16T00:13:31;24.40;58.10
59961;DHT22;55902;-37.980;-63.602;2023-03-16T00:16:04;24.30;55.10
59961;DHT22;55902;-37.980;-63.602;2023-03-16T00:18:36;24.30;57.80
59961;DHT22;55902;-37.980;-63.602;2023-03-16T00:21:04;24.20;55.60
59961;DHT22;55902;-37.980;-63.602;2023-03-16T00:23:32;24.20;55.30
59961;DHT22;55902;-37.980;-63.602;2023-03-16T00:26:03;24.20;55.20
59961;DHT22;55902;-37.980;-63.602;2023-03-16T00:28:31;24.10;53.90
59961;DHT22;55902;-37.980;-63.602;2023-03-16T00:31:07;24.10;53.90
59961;DHT22;55902;-37.980;-63.602;2023-03-16T00:33:37;24.10;53.90
59961;DHT22;55902;-37.980;-63.602;2023-03-16T00:36:06;24.10;56.10
59961;DHT22;55902;-37.980;-63.602;2023-03-16T00:38:41;24.00;55.10
59961;DHT22;55902;-37.980;-63.602;2023-03-16T00:41:14;24.00;55.90
59961;DHT22;55902;-37.980;-63.602;2023-03-16T00:43:42;24.00;57.10
59961;DHT22;55902;-37.980;-63.602;2023-03-16T00:46:15;23.90;58.80
59961;DHT22;55902;-37.980;-63.602;2023-03-16T00:48:44;23.90;56.10
59961;DHT22;55902;-37.980;-63.602;2023-03-16T00:51:14;23.80;56.20
59961;DHT22;55902;-37.980;-63.602;2023-03-16T00:53:46;23.80;55.70
59961;DHT22;55902;-37.980;-63.602;2023-03-16T00:56:13;23.80;54.10
59961;DHT22;55902;-37.980;-63.602;2023-03-16T00:59:14;23.80;54.10
59961;DHT22;55902;-37.980;-63.602;2023-03-16T01:01:41;23.70;54.90
59961;DHT22;55902;-37.980;-63.602;2023-03-16T01:11:32;23.60;54.50
59961;DHT22;55902;-37.980;-63.602;2023-03-16T01:14:00;23.60;53.70
59961;DHT22;55902;-37.980;-63.602;2023-03-16T01:16:27;23.50;54.10
59961;DHT22;55902;-37.980;-63.602;2023-03-16T01:18:54;23.50;53.30
59961;DHT22;55902;-37.980;-63.602;2023-03-16T01:21:23;23.40;53.30
59961;DHT22;55902;-37.980;-63.602;2023-03-16T01:23:50;23.40;54.50
59961;DHT22;55902;-37.980;-63.602;2023-03-16T01:26:24;23.40;55.80
59961;DHT22;55902;-37.980;-63.602;2023-03-16T01:28:52;23.40;53.90
59961;DHT22;55902;-37.980;-63.602;2023-03-16T01:31:23;23.30;53.90
59961;DHT22;55902;-37.980;-63.602;2023-03-16T01:33:53;23.30;53.10
59961;DHT22;55902;-37.980;-63.602;2023-03-16T01:36:20;23.30;52.80
59961;DHT22;55902;-37.980;-63.602;2023-03-16T01:38:47;23.40;55.40
59961;DHT22;55902;-37.980;-63.602;2023-03-16T01:41:15;23.40;54.90
59961;DHT22;55902;-37.980;-63.602;2023-03-16T01:43:42;23.40;55.50
59961;DHT22;55902;-37.980;-63.602;2023-03-16T01:46:15;23.30;56.00
59961;DHT22;55902;-37.980;-63.602;2023-03-16T01:48:47;23.30;55.80
59961;DHT22;55902;-37.980;-63.602;2023-03-16T01:53:52;23.20;54.20
59961;DHT22;55902;-37.980;-63.602;2023-03-16T01:56:24;23.20;54.80
59961;DHT22;55902;-37.980;-63.602;2023-03-16T01:59:01;23.10;55.50
59961;DHT22;55902;-37.980;-63.602;2023-03-16T02:01:30;23.10;54.50
59961;DHT22;55902;-37.980;-63.602;2023-03-16T02:06:48;23.00;54.80
59961;DHT22;55902;-37.980;-63.602;2023-03-16T02:09:16;23.00;53.10
59961;DHT22;55902;-37.980;-63.602;2023-03-16T02:11:44;22.90;53.90
59961;DHT22;55902;-37.980;-63.602;2023-03-16T02:14:11;22.90;56.10
59961;DHT22;55902;-37.980;-63.602;2023-03-16T02:16:40;22.90;55.10
59961;DHT22;55902;-37.980;-63.602;2023-03-16T02:19:15;22.90;57.20
59961;DHT22;55902;-37.980;-63.602;2023-03-16T02:31:00;22.60;59.60
59961;DHT22;55902;-37.980;-63.602;2023-03-16T02:33:29;22.50;59.80
59961;DHT22;55902;-37.980;-63.602;2023-03-16T02:35:58;22.50;61.50
59961;DHT22;55902;-37.980;-63.602;2023-03-16T02:38:28;22.50;60.10
59961;DHT22;55902;-37.980;-63.602;2023-03-16T02:41:00;22.40;60.20
59961;DHT22;55902;-37.980;-63.602;2023-03-16T02:43:33;22.40;59.80
59961;DHT22;55902;-37.980;-63.602;2023-03-16T02:46:04;22.30;60.70
59961;DHT22;55902;-37.980;-63.602;2023-03-16T02:51:21;22.30;59.70
59961;DHT22;55902;-37.980;-63.602;2023-03-16T02:53:48;22.30;60.50
59961;DHT22;55902;-37.980;-63.602;2023-03-16T02:56:15;22.20;62.20
59961;DHT22;55902;-37.980;-63.602;2023-03-16T02:58:45;22.20;61.50
59961;DHT22;55902;-37.980;-63.602;2023-03-16T03:01:12;22.20;59.40
59961;DHT22;55902;-37.980;-63.602;2023-03-16T03:03:40;22.20;59.20
59961;DHT22;55902;-37.980;-63.602;2023-03-16T03:06:07;22.20;60.50
59961;DHT22;55902;-37.980;-63.602;2023-03-16T03:08:37;22.10;62.60
59961;DHT22;55902;-37.980;-63.602;2023-03-16T03:11:08;22.00;62.40
59961;DHT22;55902;-37.980;-63.602;2023-03-16T03:13:35;22.00;61.90
59961;DHT22;55902;-37.980;-63.602;2023-03-16T03:16:09;21.90;63.10
59961;DHT22;55902;-37.980;-63.602;2023-03-16T03:18:40;21.90;61.30
59961;DHT22;55902;-37.980;-63.602;2023-03-16T03:21:09;21.80;62.70
59961;DHT22;55902;-37.980;-63.602;2023-03-16T03:23:36;21.80;62.10
59961;DHT22;55902;-37.980;-63.602;2023-03-16T03:26:04;21.80;62.60
59961;DHT22;55902;-37.980;-63.602;2023-03-16T03:28:31;21.70;61.90
59961;DHT22;55902;-37.980;-63.602;2023-03-16T03:31:01;21.70;60.70
59961;DHT22;55902;-37.980;-63.602;2023-03-16T03:37:08;21.70;61.80
59961;DHT22;55902;-37.980;-63.602;2023-03-16T03:39:35;21.70;58.20
59961;DHT22;55902;-37.980;-63.602;2023-03-16T03:42:02;21.70;60.00
59961;DHT22;55902;-37.980;-63.602;2023-03-16T03:44:29;21.70;60.60
59961;DHT22;55902;-37.980;-63.602;2023-03-16T03:47:00;21.70;61.70
59961;DHT22;55902;-37.980;-63.602;2023-03-16T03:49:31;21.70;60.80
59961;DHT22;55902;-37.980;-63.602;2023-03-16T03:51:57;21.70;62.10
59961;DHT22;55902;-37.980;-63.602;2023-03-16T03:54:30;21.70;59.90
59961;DHT22;55902;-37.980;-63.602;2023-03-16T03:56:57;21.70;59.10
59961;DHT22;55902;-37.980;-63.602;2023-03-16T03:59:24;21.70;58.50
59961;DHT22;55902;-37.980;-63.602;2023-03-16T04:01:51;21.70;60.50
59961;DHT22;55902;-37.980;-63.602;2023-03-16T04:04:19;21.60;64.70
59961;DHT22;55902;-37.980;-63.602;2023-03-16T04:06:46;21.50;65.10
59961;DHT22;55902;-37.980;-63.602;2023-03-16T04:09:13;21.50;64.50
59961;DHT22;55902;-37.980;-63.602;2023-03-16T04:11:40;21.40;61.80
59961;DHT22;55902;-37.980;-63.602;2023-03-16T04:14:07;21.40;61.50
59961;DHT22;55902;-37.980;-63.602;2023-03-16T04:16:35;21.40;61.70
59961;DHT22;55902;-37.980;-63.602;2023-03-16T04:19:01;21.40;61.80
59961;DHT22;55902;-37.980;-63.602;2023-03-16T04:21:30;21.30;61.40
59961;DHT22;55902;-37.980;-63.602;2023-03-16T04:24:00;21.30;59.20
59961;DHT22;55902;-37.980;-63.602;2023-03-16T04:26:30;21.30;63.20
59961;DHT22;55902;-37.980;-63.602;2023-03-16T04:28:57;21.30;63.10
59961;DHT22;55902;-37.980;-63.602;2023-03-16T04:31:26;21.30;65.00
59961;DHT22;55902;-37.980;-63.602;2023-03-16T04:34:12;21.30;64.80
59961;DHT22;55902;-37.980;-63.602;2023-03-16T04:36:39;21.20;62.20
59961;DHT22;55902;-37.980;-63.602;2023-03-16T04:39:09;21.20;61.90
59961;DHT22;55902;-37.980;-63.602;2023-03-16T04:55:20;21.20;61.20
59961;DHT22;55902;-37.980;-63.602;2023-03-16T05:11:29;21.00;67.10
59961;DHT22;55902;-37.980;-63.602;2023-03-16T05:13:56;21.00;65.10
59961;DHT22;55902;-37.980;-63.602;2023-03-16T05:23:48;20.90;63.40
59961;DHT22;55902;-37.980;-63.602;2023-03-16T05:26:15;20.80;66.40
59961;DHT22;55902;-37.980;-63.602;2023-03-16T05:28:44;20.70;70.30
59961;DHT22;55902;-37.980;-63.602;2023-03-16T05:31:11;20.60;71.80
59961;DHT22;55902;-37.980;-63.602;2023-03-16T05:33:38;20.50;72.30
59961;DHT22;55902;-37.980;-63.602;2023-03-16T05:36:05;20.50;71.00
59961;DHT22;55902;-37.980;-63.602;2023-03-16T05:38:32;20.50;67.40
59961;DHT22;55902;-37.980;-63.602;2023-03-16T05:41:05;20.40;71.80
59961;DHT22;55902;-37.980;-63.602;2023-03-16T05:43:32;20.40;71.90
59961;DHT22;55902;-37.980;-63.602;2023-03-16T05:45:59;20.30;71.00
59961;DHT22;55902;-37.980;-63.602;2023-03-16T05:48:26;20.30;70.80
59961;DHT22;55902;-37.980;-63.602;2023-03-16T05:50:56;20.30;69.40
59961;DHT22;55902;-37.980;-63.602;2023-03-16T05:53:23;20.30;69.50
59961;DHT22;55902;-37.980;-63.602;2023-03-16T05:55:53;20.30;70.20
59961;DHT22;55902;-37.980;-63.602;2023-03-16T05:58:20;20.40;67.60
59961;DHT22;55902;-37.980;-63.602;2023-03-16T06:00:51;20.40;69.80
59961;DHT22;55902;-37.980;-63.602;2023-03-16T06:03:18;20.40;70.30
59961;DHT22;55902;-37.980;-63.602;2023-03-16T06:05:44;20.30;69.60
59961;DHT22;55902;-37.980;-63.602;2023-03-16T06:08:12;20.30;69.50
59961;DHT22;55902;-37.980;-63.602;2023-03-16T06:10:40;20.30;70.10
59961;DHT22;55902;-37.980;-63.602;2023-03-16T06:13:07;20.30;71.80
59961;DHT22;55902;-37.980;-63.602;2023-03-16T06:15:34;20.20;71.80
59961;DHT22;55902;-37.980;-63.602;2023-03-16T06:18:01;20.20;70.60
59961;DHT22;55902;-37.980;-63.602;2023-03-16T06:20:28;20.10;70.40
59961;DHT22;55902;-37.980;-63.602;2023-03-16T06:22:55;20.10;72.40
59961;DHT22;55902;-37.980;-63.602;2023-03-16T06:25:22;20.00;73.10
59961;DHT22;55902;-37.980;-63.602;2023-03-16T06:27:49;20.00;73.60
59961;DHT22;55902;-37.980;-63.602;2023-03-16T06:30:19;20.00;73.50
59961;DHT22;55902;-37.980;-63.602;2023-03-16T06:32:50;20.00;73.10
59961;DHT22;55902;-37.980;-63.602;2023-03-16T06:35:17;19.90;73.30
59961;DHT22;55902;-37.980;-63.602;2023-03-16T06:37:44;19.90;72.20
59961;DHT22;55902;-37.980;-63.602;2023-03-16T06:40:11;19.90;72.80
59961;DHT22;55902;-37.980;-63.602;2023-03-16T06:42:41;19.90;72.50
59961;DHT22;55902;-37.980;-63.602;2023-03-16T06:45:09;19.90;72.60
59961;DHT22;55902;-37.980;-63.602;2023-03-16T06:47:36;19.80;75.90
59961;DHT22;55902;-37.980;-63.602;2023-03-16T06:50:04;19.70;76.10
59961;DHT22;55902;-37.980;-63.602;2023-03-16T06:52:31;19.70;75.50
59961;DHT22;55902;-37.980;-63.602;2023-03-16T06:55:00;19.70;73.90
59961;DHT22;55902;-37.980;-63.602;2023-03-16T06:57:28;19.70;72.70
59961;DHT22;55902;-37.980;-63.602;2023-03-16T06:59:54;19.70;72.90
59961;DHT22;55902;-37.980;-63.602;2023-03-16T07:05:43;19.80;73.20
59961;DHT22;55902;-37.980;-63.602;2023-03-16T07:08:16;19.80;71.90
59961;DHT22;55902;-37.980;-63.602;2023-03-16T07:10:43;19.80;72.90
59961;DHT22;55902;-37.980;-63.602;2023-03-16T07:13:13;19.80;73.00
59961;DHT22;55902;-37.980;-63.602;2023-03-16T07:16:05;19.80;73.60
59961;DHT22;55902;-37.980;-63.602;2023-03-16T07:18:32;19.80;74.40
59961;DHT22;55902;-37.980;-63.602;2023-03-16T07:20:59;19.80;74.50
59961;DHT22;55902;-37.980;-63.602;2023-03-16T07:23:26;19.70;76.30
59961;DHT22;55902;-37.980;-63.602;2023-03-16T07:25:56;19.70;74.90
59961;DHT22;55902;-37.980;-63.602;2023-03-16T07:28:26;19.70;76.70
59961;DHT22;55902;-37.980;-63.602;2023-03-16T07:30:57;19.70;75.70
59961;DHT22;55902;-37.980;-63.602;2023-03-16T07:33:24;19.60;75.80
59961;DHT22;55902;-37.980;-63.602;2023-03-16T07:35:51;19.70;75.80
59961;DHT22;55902;-37.980;-63.602;2023-03-16T07:38:18;19.60;76.40
59961;DHT22;55902;-37.980;-63.602;2023-03-16T07:40:49;19.60;77.20
59961;DHT22;55902;-37.980;-63.602;2023-03-16T07:43:17;19.60;78.80
59961;DHT22;55902;-37.980;-63.602;2023-03-16T07:45:51;19.50;80.00
59961;DHT22;55902;-37.980;-63.602;2023-03-16T07:48:21;19.60;78.20
59961;DHT22;55902;-37.980;-63.602;2023-03-16T07:50:48;19.50;79.60
59961;DHT22;55902;-37.980;-63.602;2023-03-16T07:53:19;19.60;79.20
59961;DHT22;55902;-37.980;-63.602;2023-03-16T07:55:49;19.60;79.70
59961;DHT22;55902;-37.980;-63.602;2023-03-16T07:58:18;19.50;81.30
59961;DHT22;55902;-37.980;-63.602;2023-03-16T08:00:45;19.40;82.60
59961;DHT22;55902;-37.980;-63.602;2023-03-16T08:03:12;19.40;81.80
59961;DHT22;55902;-37.980;-63.602;2023-03-16T08:05:39;19.40;79.70
59961;DHT22;55902;-37.980;-63.602;2023-03-16T08:08:10;19.30;83.10
59961;DHT22;55902;-37.980;-63.602;2023-03-16T08:10:36;19.30;81.50
59961;DHT22;55902;-37.980;-63.602;2023-03-16T08:13:04;19.30;80.00
59961;DHT22;55902;-37.980;-63.602;2023-03-16T08:15:31;19.30;78.40
59961;DHT22;55902;-37.980;-63.602;2023-03-16T08:28:06;19.10;84.10
59961;DHT22;55902;-37.980;-63.602;2023-03-16T08:30:34;19.10;84.20
59961;DHT22;55902;-37.980;-63.602;2023-03-16T08:33:04;19.10;87.40
59961;DHT22;55902;-37.980;-63.602;2023-03-16T08:35:35;19.00;89.50
59961;DHT22;55902;-37.980;-63.602;2023-03-16T08:38:02;19.00;89.50
59961;DHT22;55902;-37.980;-63.602;2023-03-16T08:40:28;19.00;87.70
59961;DHT22;55902;-37.980;-63.602;2023-03-16T08:42:55;19.00;88.20
59961;DHT22;55902;-37.980;-63.602;2023-03-16T08:45:22;19.00;90.40
59961;DHT22;55902;-37.980;-63.602;2023-03-16T08:47:49;19.00;87.30
59961;DHT22;55902;-37.980;-63.602;2023-03-16T08:53:42;19.00;90.20
59961;DHT22;55902;-37.980;-63.602;2023-03-16T08:56:11;19.00;90.80
59961;DHT22;55902;-37.980;-63.602;2023-03-16T08:58:40;19.00;90.50
59961;DHT22;55902;-37.980;-63.602;2023-03-16T09:01:15;18.90;91.60
59961;DHT22;55902;-37.980;-63.602;2023-03-16T09:03:47;18.80;90.50
59961;DHT22;55902;-37.980;-63.602;2023-03-16T09:06:15;18.80;90.90
59961;DHT22;55902;-37.980;-63.602;2023-03-16T09:08:45;18.80;91.20
59961;DHT22;55902;-37.980;-63.602;2023-03-16T09:11:15;18.90;90.70
59961;DHT22;55902;-37.980;-63.602;2023-03-16T09:13:46;18.80;90.50
59961;DHT22;55902;-37.980;-63.602;2023-03-16T09:16:14;18.80;91.70
59961;DHT22;55902;-37.980;-63.602;2023-03-16T09:18:42;18.80;92.60
59961;DHT22;55902;-37.980;-63.602;2023-03-16T09:21:10;18.80;93.00
59961;DHT22;55902;-37.980;-63.602;2023-03-16T09:23:40;18.70;93.40
59961;DHT22;55902;-37.980;-63.602;2023-03-16T09:26:08;18.70;93.90
59961;DHT22;55902;-37.980;-63.602;2023-03-16T09:28:38;18.70;94.40
59961;DHT22;55902;-37.980;-63.602;2023-03-16T09:31:08;18.70;95.00
59961;DHT22;55902;-37.980;-63.602;2023-03-16T09:33:39;18.70;95.50
59961;DHT22;55902;-37.980;-63.602;2023-03-16T09:36:06;18.70;95.60
59961;DHT22;55902;-37.980;-63.602;2023-03-16T09:38:40;18.70;95.60
59961;DHT22;55902;-37.980;-63.602;2023-03-16T09:41:44;18.80;95.60
59961;DHT22;55902;-37.980;-63.602;2023-03-16T09:44:17;18.80;95.90
59961;DHT22;55902;-37.980;-63.602;2023-03-16T09:46:48;18.80;96.20
59961;DHT22;55902;-37.980;-63.602;2023-03-16T09:49:18;18.70;97.30
59961;DHT22;55902;-37.980;-63.602;2023-03-16T09:52:23;18.80;98.40
59961;DHT22;55902;-37.980;-63.602;2023-03-16T09:54:55;18.70;99.00
59961;DHT22;55902;-37.980;-63.602;2023-03-16T09:57:32;18.80;99.00
59961;DHT22;55902;-37.980;-63.602;2023-03-16T10:05:37;18.90;99.90
59961;DHT22;55902;-37.980;-63.602;2023-03-16T10:08:19;19.00;99.90
59961;DHT22;55902;-37.980;-63.602;2023-03-16T10:11:05;19.00;99.90
59961;DHT22;55902;-37.980;-63.602;2023-03-16T10:13:43;19.10;99.90
59961;DHT22;55902;-37.980;-63.602;2023-03-16T10:16:41;19.10;99.90
59961;DHT22;55902;-37.980;-63.602;2023-03-16T10:21:41;19.20;99.90
59961;DHT22;55902;-37.980;-63.602;2023-03-16T10:27:03;19.20;99.90
59961;DHT22;55902;-37.980;-63.602;2023-03-16T10:29:35;19.30;99.90
59961;DHT22;55902;-37.980;-63.602;2023-03-16T10:32:15;19.30;99.90
59961;DHT22;55902;-37.980;-63.602;2023-03-16T10:37:44;19.30;99.90
59961;DHT22;55902;-37.980;-63.602;2023-03-16T10:40:16;19.30;99.90
59961;DHT22;55902;-37.980;-63.602;2023-03-16T10:42:48;19.40;99.90
59961;DHT22;55902;-37.980;-63.602;2023-03-16T10:45:35;19.40;99.90
59961;DHT22;55902;-37.980;-63.602;2023-03-16T10:48:13;19.40;99.90
59961;DHT22;55902;-37.980;-63.602;2023-03-16T10:50:48;19.40;99.90
59961;DHT22;55902;-37.980;-63.602;2023-03-16T10:53:27;19.40;99.90
59961;DHT22;55902;-37.980;-63.602;2023-03-16T10:56:00;19.30;99.90
59961;DHT22;55902;-37.980;-63.602;2023-03-16T10:58:32;19.40;99.90
59961;DHT22;55902;-37.980;-63.602;2023-03-16T11:01:01;19.40;99.90
59961;DHT22;55902;-37.980;-63.602;2023-03-16T11:03:39;19.50;99.90
59961;DHT22;55902;-37.980;-63.602;2023-03-16T11:06:23;19.50;99.90
59961;DHT22;55902;-37.980;-63.602;2023-03-16T11:08:52;19.60;99.90
59961;DHT22;55902;-37.980;-63.602;2023-03-16T11:11:28;19.60;99.90
59961;DHT22;55902;-37.980;-63.602;2023-03-16T11:14:01;19.70;99.90
59961;DHT22;55902;-37.980;-63.602;2023-03-16T11:16:46;19.70;99.90
59961;DHT22;55902;-37.980;-63.602;2023-03-16T11:22:21;19.90;99.90
59961;DHT22;55902;-37.980;-63.602;2023-03-16T11:27:48;20.20;99.90
59961;DHT22;55902;-37.980;-63.602;2023-03-16T11:33:18;20.50;99.90
59961;DHT22;55902;-37.980;-63.602;2023-03-16T11:39:27;20.90;99.90
59961;DHT22;55902;-37.980;-63.602;2023-03-16T11:50:35;22.60;99.90
59961;DHT22;55902;-37.980;-63.602;2023-03-16T11:53:41;23.10;99.90
59961;DHT22;55902;-37.980;-63.602;2023-03-16T12:11:29;26.10;99.90
59961;DHT22;55902;-37.980;-63.602;2023-03-16T12:14:13;26.10;99.90
59961;DHT22;55902;-37.980;-63.602;2023-03-16T12:16:53;26.30;99.90
59961;DHT22;55902;-37.980;-63.602;2023-03-16T12:19:44;26.50;99.90
59961;DHT22;55902;-37.980;-63.602;2023-03-16T12:24:58;26.90;99.90
59961;DHT22;55902;-37.980;-63.602;2023-03-16T12:27:34;27.00;99.90
59961;DHT22;55902;-37.980;-63.602;2023-03-16T12:35:55;27.90;99.90
59961;DHT22;55902;-37.980;-63.602;2023-03-16T12:38:45;28.10;98.60
59961;DHT22;55902;-37.980;-63.602;2023-03-16T12:41:15;28.20;98.60
59961;DHT22;55902;-37.980;-63.602;2023-03-16T12:44:10;28.40;98.10
59961;DHT22;55902;-37.980;-63.602;2023-03-16T12:49:31;28.80;96.50
59961;DHT22;55902;-37.980;-63.602;2023-03-16T12:52:11;29.10;96.00
59961;DHT22;55902;-37.980;-63.602;2023-03-16T12:54:53;29.20;94.70
59961;DHT22;55902;-37.980;-63.602;2023-03-16T12:57:24;29.30;94.40
59961;DHT22;55902;-37.980;-63.602;2023-03-16T12:59:59;29.40;94.30
59961;DHT22;55902;-37.980;-63.602;2023-03-16T13:02:38;29.60;93.70
59961;DHT22;55902;-37.980;-63.602;2023-03-16T13:05:13;29.50;91.90
59961;DHT22;55902;-37.980;-63.602;2023-03-16T13:07:53;29.60;92.20
59961;DHT22;55902;-37.980;-63.602;2023-03-16T13:10:29;29.60;91.40
59961;DHT22;55902;-37.980;-63.602;2023-03-16T13:13:19;29.60;90.70
59961;DHT22;55902;-37.980;-63.602;2023-03-16T13:16:07;29.70;90.50
59961;DHT22;55902;-37.980;-63.602;2023-03-16T13:18:38;29.80;88.40
59961;DHT22;55902;-37.980;-63.602;2023-03-16T13:21:38;30.00;87.60
59961;DHT22;55902;-37.980;-63.602;2023-03-16T13:26:58;30.30;81.90
59961;DHT22;55902;-37.980;-63.602;2023-03-16T13:29:31;30.40;86.10
59961;DHT22;55902;-37.980;-63.602;2023-03-16T13:32:06;30.80;84.70
59961;DHT22;55902;-37.980;-63.602;2023-03-16T13:34:50;31.00;82.30
59961;DHT22;55902;-37.980;-63.602;2023-03-16T13:37:19;31.20;77.70
59961;DHT22;55902;-37.980;-63.602;2023-03-16T13:39:58;31.40;79.30
59961;DHT22;55902;-37.980;-63.602;2023-03-16T13:42:35;31.70;80.30
59961;DHT22;55902;-37.980;-63.602;2023-03-16T13:45:13;32.10;77.70
59961;DHT22;55902;-37.980;-63.602;2023-03-16T13:47:44;32.30;72.80
59961;DHT22;55902;-37.980;-63.602;2023-03-16T13:50:17;32.40;71.90
59961;DHT22;55902;-37.980;-63.602;2023-03-16T13:52:55;32.40;71.70
59961;DHT22;55902;-37.980;-63.602;2023-03-16T13:55:30;32.60;71.60
59961;DHT22;55902;-37.980;-63.602;2023-03-16T13:57:59;32.80;72.10
59961;DHT22;55902;-37.980;-63.602;2023-03-16T14:00:37;32.80;62.80
59961;DHT22;55902;-37.980;-63.602;2023-03-16T14:03:16;33.00;66.60
59961;DHT22;55902;-37.980;-63.602;2023-03-16T14:05:44;33.20;61.90
59961;DHT22;55902;-37.980;-63.602;2023-03-16T14:08:19;33.20;63.70
59961;DHT22;55902;-37.980;-63.602;2023-03-16T14:10:52;33.30;63.80
59961;DHT22;55902;-37.980;-63.602;2023-03-16T14:13:32;33.60;64.40
59961;DHT22;55902;-37.980;-63.602;2023-03-16T14:16:16;34.00;62.20
59961;DHT22;55902;-37.980;-63.602;2023-03-16T14:21:24;34.20;59.50
59961;DHT22;55902;-37.980;-63.602;2023-03-16T14:23:58;34.00;56.90
59961;DHT22;55902;-37.980;-63.602;2023-03-16T14:26:42;34.00;58.90
59961;DHT22;55902;-37.980;-63.602;2023-03-16T14:29:28;33.60;59.50
59961;DHT22;55902;-37.980;-63.602;2023-03-16T14:31:57;33.00;61.90
59961;DHT22;55902;-37.980;-63.602;2023-03-16T14:34:36;32.50;65.10
59961;DHT22;55902;-37.980;-63.602;2023-03-16T14:37:14;32.10;66.10
59961;DHT22;55902;-37.980;-63.602;2023-03-16T14:39:56;31.80;67.60
59961;DHT22;55902;-37.980;-63.602;2023-03-16T14:42:28;32.10;66.70
59961;DHT22;55902;-37.980;-63.602;2023-03-16T14:44:59;32.70;64.50
59961;DHT22;55902;-37.980;-63.602;2023-03-16T14:47:35;33.20;65.00
59961;DHT22;55902;-37.980;-63.602;2023-03-16T14:52:58;33.50;64.90
59961;DHT22;55902;-37.980;-63.602;2023-03-16T14:55:29;33.00;67.70
59961;DHT22;55902;-37.980;-63.602;2023-03-16T14:57:56;32.60;69.30
59961;DHT22;55902;-37.980;-63.602;2023-03-16T15:00:23;32.50;70.70
59961;DHT22;55902;-37.980;-63.602;2023-03-16T15:03:05;32.60;71.10
59961;DHT22;55902;-37.980;-63.602;2023-03-16T15:05:36;32.70;71.50
59961;DHT22;55902;-37.980;-63.602;2023-03-16T15:08:11;32.80;72.00
59961;DHT22;55902;-37.980;-63.602;2023-03-16T15:10:40;33.00;71.60
59961;DHT22;55902;-37.980;-63.602;2023-03-16T15:13:13;33.10;72.50
59961;DHT22;55902;-37.980;-63.602;2023-03-16T15:16:01;33.20;72.10
59961;DHT22;55902;-37.980;-63.602;2023-03-16T15:18:34;33.30;71.90
59961;DHT22;55902;-37.980;-63.602;2023-03-16T15:21:03;33.20;71.20
59961;DHT22;55902;-37.980;-63.602;2023-03-16T15:23:39;33.10;71.70
59961;DHT22;55902;-37.980;-63.602;2023-03-16T15:26:10;33.00;72.00
59961;DHT22;55902;-37.980;-63.602;2023-03-16T15:28:39;33.10;72.80
59961;DHT22;55902;-37.980;-63.602;2023-03-16T15:31:10;33.00;73.80
59961;DHT22;55902;-37.980;-63.602;2023-03-16T15:33:41;32.90;74.10
59961;DHT22;55902;-37.980;-63.602;2023-03-16T15:36:19;32.90;74.20
59961;DHT22;55902;-37.980;-63.602;2023-03-16T15:38:49;33.00;74.30
59961;DHT22;55902;-37.980;-63.602;2023-03-16T15:41:17;33.00;74.10
59961;DHT22;55902;-37.980;-63.602;2023-03-16T15:43:44;33.10;74.00
59961;DHT22;55902;-37.980;-63.602;2023-03-16T15:46:12;33.20;73.90
59961;DHT22;55902;-37.980;-63.602;2023-03-16T15:48:40;33.30;75.70
59961;DHT22;55902;-37.980;-63.602;2023-03-16T15:54:03;33.70;75.10
59961;DHT22;55902;-37.980;-63.602;2023-03-16T15:56:33;34.00;73.90
59961;DHT22;55902;-37.980;-63.602;2023-03-16T15:59:03;34.40;73.20
59961;DHT22;55902;-37.980;-63.602;2023-03-16T16:01:44;34.70;71.30
59961;DHT22;55902;-37.980;-63.602;2023-03-16T16:04:14;35.00;70.40
59961;DHT22;55902;-37.980;-63.602;2023-03-16T16:06:43;35.00;69.80
59961;DHT22;55902;-37.980;-63.602;2023-03-16T16:09:10;35.10;69.80
59961;DHT22;55902;-37.980;-63.602;2023-03-16T16:11:37;35.00;69.00
59961;DHT22;55902;-37.980;-63.602;2023-03-16T16:14:08;34.50;69.60
59961;DHT22;55902;-37.980;-63.602;2023-03-16T16:16:38;34.20;69.80
59961;DHT22;55902;-37.980;-63.602;2023-03-16T16:19:07;33.90;70.90
59961;DHT22;55902;-37.980;-63.602;2023-03-16T16:21:36;33.50;72.10
59961;DHT22;55902;-37.980;-63.602;2023-03-16T16:24:03;33.50;73.40
59961;DHT22;55902;-37.980;-63.602;2023-03-16T16:26:44;33.40;72.90
59961;DHT22;55902;-37.980;-63.602;2023-03-16T16:29:16;33.20;73.80
59961;DHT22;55902;-37.980;-63.602;2023-03-16T16:31:43;32.90;72.20
59961;DHT22;55902;-37.980;-63.602;2023-03-16T16:34:16;32.60;74.30
59961;DHT22;55902;-37.980;-63.602;2023-03-16T16:36:43;32.50;75.40
59961;DHT22;55902;-37.980;-63.602;2023-03-16T16:49:22;33.60;72.50
59961;DHT22;55902;-37.980;-63.602;2023-03-16T16:51:51;33.80;74.20
59961;DHT22;55902;-37.980;-63.602;2023-03-16T16:54:21;33.90;74.10
59961;DHT22;55902;-37.980;-63.602;2023-03-16T16:56:53;33.90;73.50
59961;DHT22;55902;-37.980;-63.602;2023-03-16T16:59:25;33.70;72.90
59961;DHT22;55902;-37.980;-63.602;2023-03-16T17:01:57;33.60;72.00
59961;DHT22;55902;-37.980;-63.602;2023-03-16T17:04:26;33.30;73.40
59961;DHT22;55902;-37.980;-63.602;2023-03-16T17:06:55;33.20;74.30
59961;DHT22;55902;-37.980;-63.602;2023-03-16T17:09:25;33.20;74.20
59961;DHT22;55902;-37.980;-63.602;2023-03-16T17:11:52;33.40;75.00
59961;DHT22;55902;-37.980;-63.602;2023-03-16T17:14:21;34.00;74.80
59961;DHT22;55902;-37.980;-63.602;2023-03-16T17:16:49;34.50;73.30
59961;DHT22;55902;-37.980;-63.602;2023-03-16T17:19:22;34.60;72.60
59961;DHT22;55902;-37.980;-63.602;2023-03-16T17:21:50;34.50;71.60
59961;DHT22;55902;-37.980;-63.602;2023-03-16T17:24:18;34.20;71.30
